createdAt,value
2023-07-10T00:01:03.467Z,97800.28
2023-07-10T00:03:30.267Z,97794.44
2023-07-10T00:06:01.038Z,97806.63
2023-07-10T00:08:28.148Z,97804.03
2023-07-10T00:10:55.370Z,97801.94
2023-07-10T00:13:24.636Z,97795.59
2023-07-10T00:15:53.286Z,97802.78
2023-07-10T00:18:23.082Z,97803.75
2023-07-10T00:20:50.815Z,97799.81
2023-07-10T00:23:18.779Z,97799.06
2023-07-10T00:25:45.454Z,97800.59
2023-07-10T00:28:15.683Z,97797.50
2023-07-10T00:30:42.616Z,97798.47
2023-07-10T00:33:12.110Z,97800.59
2023-07-10T00:35:39.011Z,97802.69
2023-07-10T00:38:26.575Z,97805.38
2023-07-10T00:40:53.633Z,97799.63
2023-07-10T00:43:30.397Z,97806.53
2023-07-10T00:46:04.969Z,97794.47
2023-07-10T00:48:44.286Z,97805.59
2023-07-10T00:51:22.243Z,97799.44
2023-07-10T00:53:50.212Z,97793.00
2023-07-10T00:56:20.934Z,97796.38
2023-07-10T00:58:49.990Z,97791.00
2023-07-10T01:01:20.811Z,97785.25
2023-07-10T01:03:50.988Z,97783.88
2023-07-10T01:06:33.763Z,97789.09
2023-07-10T01:09:06.416Z,97783.94
2023-07-10T01:11:36.137Z,97779.41
2023-07-10T01:14:05.860Z,97772.66
2023-07-10T01:16:32.792Z,97780.53
2023-07-10T01:18:59.904Z,97785.88
2023-07-10T01:21:32.086Z,97788.56
2023-07-10T01:24:02.129Z,97778.75
2023-07-10T01:26:30.181Z,97771.06
2023-07-10T01:28:58.617Z,97778.00
2023-07-10T01:31:27.618Z,97785.09
2023-07-10T01:33:58.014Z,97772.81
2023-07-10T01:36:28.136Z,97765.72
2023-07-10T01:39:04.004Z,97767.63
2023-07-10T01:41:41.224Z,97757.66
2023-07-10T01:44:30.894Z,97764.00
2023-07-10T01:46:59.391Z,97770.50
2023-07-10T01:49:36.624Z,97769.66
2023-07-10T01:52:05.918Z,97769.75
2023-07-10T01:54:32.518Z,97784.44
2023-07-10T01:56:59.771Z,97791.78
2023-07-10T01:59:26.412Z,97790.41
2023-07-10T02:01:55.847Z,97797.09
2023-07-10T02:04:23.076Z,97805.72
2023-07-10T02:06:50.031Z,97801.84
2023-07-10T02:09:17.085Z,97809.88
2023-07-10T02:11:43.792Z,97804.72
2023-07-10T02:14:10.489Z,97811.63
2023-07-10T02:16:37.362Z,97817.44
2023-07-10T02:19:06.254Z,97832.66
2023-07-10T02:21:34.025Z,97837.63
2023-07-10T02:24:01.613Z,97834.25
2023-07-10T02:26:30.341Z,97847.88
2023-07-10T02:28:58.584Z,97839.59
2023-07-10T02:31:26.669Z,97843.59
2023-07-10T02:33:54.335Z,97836.78
2023-07-10T02:36:24.453Z,97841.97
2023-07-10T02:38:51.171Z,97834.88
2023-07-10T02:41:17.785Z,97838.06
2023-07-10T02:43:44.436Z,97835.59
2023-07-10T02:46:11.094Z,97833.13
2023-07-10T02:48:37.958Z,97824.66
2023-07-10T02:51:04.600Z,97821.13
2023-07-10T02:53:32.051Z,97824.53
2023-07-10T02:55:58.859Z,97807.59
2023-07-10T02:58:25.689Z,97801.91
2023-07-10T03:00:57.154Z,97798.09
2023-07-10T03:03:24.039Z,97791.94
2023-07-10T03:05:59.263Z,97782.72
2023-07-10T03:08:26.726Z,97778.69
2023-07-10T03:11:06.773Z,97783.66
2023-07-10T03:13:33.815Z,97781.81
2023-07-10T03:16:06.042Z,97781.47
2023-07-10T03:18:33.212Z,97790.13
2023-07-10T03:20:59.856Z,97788.75
2023-07-10T03:23:26.871Z,97789.97
2023-07-10T03:25:53.856Z,97795.53
2023-07-10T03:28:20.657Z,97793.19
2023-07-10T03:30:47.529Z,97782.56
2023-07-10T03:33:16.680Z,97781.81
2023-07-10T03:35:44.358Z,97774.69
2023-07-10T03:38:11.269Z,97769.44
2023-07-10T03:40:38.062Z,97779.28
2023-07-10T03:43:04.796Z,97784.84
2023-07-10T03:45:32.948Z,97781.75
2023-07-10T03:47:59.618Z,97790.66
2023-07-10T03:50:26.404Z,97784.16
2023-07-10T03:52:53.065Z,97788.72
2023-07-10T03:55:20.004Z,97788.78
2023-07-10T03:57:47.032Z,97797.69
2023-07-10T04:00:14.325Z,97793.84
2023-07-10T04:02:41.026Z,97788.41
2023-07-10T04:05:07.847Z,97785.13
2023-07-10T04:07:34.424Z,97785.09
2023-07-10T04:10:01.134Z,97782.13
2023-07-10T04:12:28.654Z,97794.44
2023-07-10T04:14:55.852Z,97794.72
2023-07-10T04:17:22.556Z,97800.88
2023-07-10T04:19:49.421Z,97803.94
2023-07-10T04:22:16.166Z,97801.69
2023-07-10T04:24:43.461Z,97809.41
2023-07-10T04:27:10.357Z,97811.28
2023-07-10T04:29:37.409Z,97813.06
2023-07-10T04:32:04.356Z,97813.00
2023-07-10T04:34:31.010Z,97813.50
2023-07-10T04:36:57.611Z,97820.22
2023-07-10T04:39:25.660Z,97828.44
2023-07-10T04:41:52.293Z,97830.19
2023-07-10T04:44:18.907Z,97835.75
2023-07-10T04:46:45.697Z,97840.41
2023-07-10T04:49:12.408Z,97833.13
2023-07-10T04:51:39.056Z,97842.88
2023-07-10T04:54:05.733Z,97847.78
2023-07-10T04:56:32.389Z,97850.00
2023-07-10T04:58:59.832Z,97853.97
2023-07-10T05:01:29.880Z,97849.38
2023-07-10T05:03:58.505Z,97844.59
2023-07-10T05:06:25.632Z,97836.59
2023-07-10T05:08:54.276Z,97832.41
2023-07-10T05:11:23.559Z,97826.84
2023-07-10T05:13:50.519Z,97835.94
2023-07-10T05:16:17.380Z,97829.03
2023-07-10T05:18:44.066Z,97833.78
2023-07-10T05:21:10.976Z,97853.22
2023-07-10T05:23:37.687Z,97865.69
2023-07-10T05:26:15.097Z,97860.19
2023-07-10T05:28:42.187Z,97852.09
2023-07-10T05:31:11.405Z,97860.72
2023-07-10T05:33:39.689Z,97867.59
2023-07-10T05:36:09.395Z,97856.84
2023-07-10T05:38:36.505Z,97857.59
2023-07-10T05:41:04.082Z,97858.53
2023-07-10T05:43:31.960Z,97869.84
2023-07-10T05:45:59.652Z,97864.53
2023-07-10T05:48:27.511Z,97869.28
2023-07-10T05:50:54.600Z,97869.59
2023-07-10T05:53:21.863Z,97860.00
2023-07-10T05:55:51.172Z,97866.31
2023-07-10T05:58:18.843Z,97866.63
2023-07-10T06:00:48.903Z,97875.44
2023-07-10T06:03:15.978Z,97877.41
2023-07-10T06:05:42.678Z,97878.38
2023-07-10T06:08:12.393Z,97882.84
2023-07-10T06:10:39.036Z,97893.50
2023-07-10T06:13:05.684Z,97882.72
2023-07-10T06:15:33.014Z,97884.38
2023-07-10T06:17:59.798Z,97891.41
2023-07-10T06:20:26.721Z,97895.00
2023-07-10T06:22:53.336Z,97890.19
2023-07-10T06:25:19.960Z,97887.72
2023-07-10T06:27:46.662Z,97879.19
2023-07-10T06:30:14.123Z,97880.81
2023-07-10T06:32:41.701Z,97884.75
2023-07-10T06:35:08.922Z,97881.69
2023-07-10T06:37:35.525Z,97894.88
2023-07-10T06:40:09.843Z,97894.25
2023-07-10T06:42:38.016Z,97896.44
2023-07-10T06:45:06.365Z,97906.13
2023-07-10T06:47:35.425Z,97917.34
2023-07-10T06:50:05.191Z,97974.81
2023-07-10T06:52:32.380Z,97992.75
2023-07-10T06:54:59.042Z,98000.34
2023-07-10T06:57:25.772Z,97980.03
2023-07-10T06:59:52.461Z,97981.00
2023-07-10T07:02:19.142Z,97970.44
2023-07-10T07:04:45.759Z,97900.13
2023-07-10T07:07:12.410Z,97906.69
2023-07-10T07:09:39.022Z,97931.16
2023-07-10T07:12:07.493Z,97938.47
2023-07-10T07:14:34.178Z,97922.09
2023-07-10T07:17:01.192Z,97930.84
2023-07-10T07:19:27.899Z,97938.34
2023-07-10T07:21:54.557Z,97934.94
2023-07-10T07:24:21.268Z,97946.94
2023-07-10T07:26:49.121Z,97961.72
2023-07-10T07:29:17.537Z,97973.94
2023-07-10T07:31:44.205Z,97987.03
2023-07-10T07:34:10.924Z,97991.03
2023-07-10T07:36:38.406Z,98009.38
2023-07-10T07:39:06.452Z,97999.25
2023-07-10T07:41:33.639Z,98015.44
2023-07-10T07:44:01.327Z,98007.97
2023-07-10T07:46:29.058Z,98022.56
2023-07-10T07:48:56.097Z,98033.53
2023-07-10T07:51:22.758Z,98027.19
2023-07-10T07:53:49.444Z,98029.31
2023-07-10T07:56:16.198Z,98022.38
2023-07-10T07:58:43.212Z,98008.34
2023-07-10T08:01:11.108Z,98019.50
2023-07-10T08:03:38.047Z,98013.56
2023-07-10T08:06:05.340Z,98014.59
2023-07-10T08:08:32.180Z,98009.31
2023-07-10T08:10:58.861Z,97995.94
2023-07-10T08:13:25.693Z,97986.84
2023-07-10T08:15:52.391Z,97985.63
2023-07-10T08:18:19.337Z,97991.97
2023-07-10T08:20:46.036Z,97971.00
2023-07-10T08:23:12.695Z,97969.91
2023-07-10T08:25:39.681Z,97972.75
2023-07-10T08:28:09.520Z,97961.41
2023-07-10T08:30:36.247Z,97968.13
2023-07-10T08:33:02.971Z,97980.28
2023-07-10T08:35:29.654Z,97969.41
2023-07-10T08:37:56.357Z,97991.34
2023-07-10T08:40:30.736Z,97979.81
2023-07-10T08:42:59.145Z,97967.81
2023-07-10T08:45:34.655Z,97987.25
2023-07-10T08:48:31.838Z,97997.06
2023-07-10T08:51:20.574Z,97988.97
2023-07-10T08:53:59.562Z,97985.16
2023-07-10T08:56:37.749Z,97991.94
2023-07-10T08:59:36.358Z,98009.63
2023-07-10T09:02:04.490Z,98018.78
2023-07-10T09:04:33.039Z,98026.75
2023-07-10T09:07:02.846Z,98021.44
2023-07-10T09:09:36.444Z,98035.16
2023-07-10T09:12:13.764Z,98038.59
2023-07-10T09:15:02.790Z,98035.63
2023-07-10T09:17:54.437Z,98030.69
2023-07-10T09:20:23.707Z,98025.38
2023-07-10T09:22:58.852Z,98032.47
2023-07-10T09:25:26.142Z,98032.53
2023-07-10T09:27:53.147Z,98019.81
2023-07-10T09:30:44.935Z,98009.22
2023-07-10T09:33:14.792Z,97997.25
2023-07-10T09:35:43.701Z,98003.41
2023-07-10T09:38:15.608Z,98006.03
2023-07-10T09:40:50.331Z,98005.44
2023-07-10T09:43:23.315Z,98009.84
2023-07-10T09:45:53.039Z,98012.13
2023-07-10T09:48:31.826Z,98011.13
2023-07-10T09:51:03.492Z,98005.97
2023-07-10T09:53:32.179Z,97991.63
2023-07-10T09:55:59.380Z,97992.66
2023-07-10T09:58:26.754Z,97991.22
2023-07-10T10:00:53.647Z,97983.91
2023-07-10T10:03:32.820Z,97976.09
2023-07-10T10:06:00.808Z,97988.19
2023-07-10T10:08:33.442Z,97988.13
2023-07-10T10:11:09.914Z,97986.22
2023-07-10T10:13:58.121Z,97980.66
2023-07-10T10:16:40.126Z,97990.38
2023-07-10T10:19:06.826Z,97976.81
2023-07-10T10:21:35.624Z,97981.97
2023-07-10T10:24:08.946Z,97977.63
2023-07-10T10:27:01.941Z,97975.34
2023-07-10T10:29:47.706Z,97974.13
2023-07-10T10:32:27.053Z,97980.50
2023-07-10T10:35:14.174Z,97980.38
2023-07-10T10:38:13.445Z,97975.38
2023-07-10T10:41:09.746Z,97973.44
2023-07-10T10:43:56.128Z,97967.44
2023-07-10T10:46:34.974Z,97958.66
2023-07-10T10:49:25.068Z,97950.13
2023-07-10T10:51:51.856Z,97960.50
2023-07-10T10:54:48.250Z,97950.94
2023-07-10T10:57:38.929Z,97946.84
2023-07-10T11:00:08.484Z,97952.66
2023-07-10T11:02:52.847Z,97955.38
2023-07-10T11:05:54.339Z,97936.91
2023-07-10T11:08:26.680Z,97941.06
2023-07-10T11:10:55.636Z,97938.53
2023-07-10T11:13:31.366Z,97925.28
2023-07-10T11:15:58.882Z,97920.59
2023-07-10T11:18:26.089Z,97917.06
2023-07-10T11:20:53.225Z,97912.03
2023-07-10T11:23:33.942Z,97908.78
2023-07-10T11:26:04.925Z,97905.88
2023-07-10T11:28:33.176Z,97902.28
2023-07-10T11:31:20.338Z,97894.56
2023-07-10T11:34:00.404Z,97893.75
2023-07-10T11:36:26.954Z,97894.41
2023-07-10T11:39:10.584Z,97893.25
2023-07-10T11:42:00.320Z,97891.97
2023-07-10T11:44:30.297Z,97889.28
2023-07-10T11:47:03.431Z,97885.97
2023-07-10T11:49:53.433Z,97887.22
2023-07-10T11:52:20.044Z,97875.00
2023-07-10T11:54:46.942Z,97881.75
2023-07-10T11:57:19.930Z,97877.75
2023-07-10T11:59:55.676Z,97872.03
2023-07-10T12:02:43.052Z,97877.19
2023-07-10T12:05:26.915Z,97864.50
2023-07-10T12:07:59.970Z,97851.75
2023-07-10T12:10:31.436Z,97850.50
2023-07-10T12:13:01.041Z,97858.84
2023-07-10T12:15:28.040Z,97846.94
2023-07-10T12:17:56.022Z,97846.53
2023-07-10T12:20:32.178Z,97856.97
2023-07-10T12:23:12.549Z,97847.53
2023-07-10T12:25:39.626Z,97848.22
2023-07-10T12:28:25.157Z,97857.84
2023-07-10T12:30:55.729Z,97863.06
2023-07-10T12:33:43.892Z,97851.91
2023-07-10T12:36:28.057Z,97853.69
2023-07-10T12:38:58.531Z,97856.88
2023-07-10T12:41:26.235Z,97851.47
2023-07-10T12:43:56.741Z,97839.47
2023-07-10T12:46:25.952Z,97844.03
2023-07-10T12:49:17.252Z,97836.09
2023-07-10T12:51:50.004Z,97831.00
2023-07-10T12:54:23.279Z,97832.53
2023-07-10T12:56:53.044Z,97825.53
2023-07-10T12:59:33.415Z,97833.50
2023-07-10T13:02:23.889Z,97817.81
2023-07-10T13:05:00.278Z,97825.28
2023-07-10T13:07:35.582Z,97812.94
2023-07-10T13:10:21.310Z,97816.72
2023-07-10T13:12:50.751Z,97803.09
2023-07-10T13:15:19.494Z,97795.41
2023-07-10T13:17:54.674Z,97791.28
2023-07-10T13:20:25.230Z,97798.41
2023-07-10T13:22:53.564Z,97805.00
2023-07-10T13:25:20.249Z,97797.75
2023-07-10T13:27:46.945Z,97794.25
2023-07-10T13:30:16.809Z,97796.78
2023-07-10T13:32:43.820Z,97806.19
2023-07-10T13:35:11.543Z,97797.44
2023-07-10T13:37:38.243Z,97799.16
2023-07-10T13:40:06.152Z,97805.94
2023-07-10T13:42:32.831Z,97799.03
2023-07-10T13:44:59.720Z,97805.91
2023-07-10T13:47:27.503Z,97792.34
2023-07-10T13:49:54.753Z,97796.00
2023-07-10T13:52:27.207Z,97797.94
2023-07-10T13:54:55.705Z,97804.28
2023-07-10T13:57:30.320Z,97793.00
2023-07-10T14:00:00.685Z,97805.09
2023-07-10T14:02:29.546Z,97791.75
2023-07-10T14:04:58.206Z,97797.00
2023-07-10T14:07:27.515Z,97796.25
2023-07-10T14:09:59.589Z,97795.59
2023-07-10T14:12:31.398Z,97797.28
2023-07-10T14:15:00.749Z,97789.22
2023-07-10T14:17:30.299Z,97795.13
2023-07-10T14:19:57.828Z,97790.63
2023-07-10T14:22:25.319Z,97780.50
2023-07-10T14:24:52.191Z,97783.19
2023-07-10T14:27:25.510Z,97776.25
2023-07-10T14:29:53.555Z,97773.09
2023-07-10T14:32:27.662Z,97774.72
2023-07-10T14:34:54.434Z,97780.59
2023-07-10T14:37:28.593Z,97778.19
2023-07-10T14:39:55.289Z,97768.38
2023-07-10T14:42:26.552Z,97767.06
2023-07-10T14:44:53.546Z,97765.91
2023-07-10T14:47:20.209Z,97768.06
2023-07-10T14:49:47.395Z,97769.63
2023-07-10T14:52:26.342Z,97759.28
2023-07-10T14:54:58.672Z,97762.44
2023-07-10T14:57:34.375Z,97754.38
2023-07-10T15:00:03.120Z,97757.72
2023-07-10T15:02:29.857Z,97751.44
2023-07-10T15:04:56.491Z,97746.16
2023-07-10T15:07:23.494Z,97742.50
2023-07-10T15:09:51.293Z,97737.69
2023-07-10T15:12:21.437Z,97734.78
2023-07-10T15:14:51.292Z,97746.81
2023-07-10T15:17:20.165Z,97733.78
2023-07-10T15:19:47.428Z,97737.22
2023-07-10T15:22:15.881Z,97743.41
2023-07-10T15:24:43.038Z,97734.78
2023-07-10T15:27:10.204Z,97742.09
2023-07-10T15:29:37.439Z,97743.16
2023-07-10T15:32:07.209Z,97733.53
2023-07-10T15:34:36.504Z,97736.88
2023-07-10T15:37:03.270Z,97733.03
2023-07-10T15:39:30.422Z,97740.25
2023-07-10T15:41:57.228Z,97727.16
2023-07-10T15:44:24.056Z,97729.28
2023-07-10T15:46:50.866Z,97729.13
2023-07-10T15:49:20.895Z,97736.88
2023-07-10T15:51:49.696Z,97733.53
2023-07-10T15:54:17.784Z,97735.78
2023-07-10T15:56:44.713Z,97747.19
2023-07-10T15:59:13.669Z,97727.63
2023-07-10T16:01:41.810Z,97729.84
2023-07-10T16:04:19.329Z,97729.47
2023-07-10T16:06:46.031Z,97732.41
2023-07-10T16:09:14.393Z,97730.75
2023-07-10T16:11:42.295Z,97735.28
2023-07-10T16:14:14.699Z,97735.97
2023-07-10T16:16:42.183Z,97727.91
2023-07-10T16:19:12.584Z,97731.44
2023-07-10T16:21:41.804Z,97730.47
2023-07-10T16:24:18.256Z,97721.97
2023-07-10T16:26:45.829Z,97730.69
2023-07-10T16:29:13.693Z,97725.09
2023-07-10T16:31:43.621Z,97728.59
2023-07-10T16:34:17.403Z,97731.06
2023-07-10T16:36:44.048Z,97728.91
2023-07-10T16:39:10.720Z,97729.06
2023-07-10T16:41:37.419Z,97732.38
2023-07-10T16:44:04.262Z,97726.47
2023-07-10T16:46:31.148Z,97733.69
2023-07-10T16:48:58.219Z,97726.97
2023-07-10T16:51:27.107Z,97732.13
2023-07-10T16:53:58.857Z,97727.91
2023-07-10T16:56:26.214Z,97742.13
2023-07-10T16:58:53.381Z,97736.69
2023-07-10T17:01:23.636Z,97736.47
2023-07-10T17:03:54.272Z,97734.53
2023-07-10T17:06:25.074Z,97730.66
2023-07-10T17:08:51.866Z,97733.97
2023-07-10T17:11:25.914Z,97736.75
2023-07-10T17:13:52.739Z,97725.81
2023-07-10T17:16:19.503Z,97731.78
2023-07-10T17:18:46.392Z,97723.75
2023-07-10T17:21:14.617Z,97727.75
2023-07-10T17:23:42.782Z,97723.94
2023-07-10T17:26:21.151Z,97724.94
2023-07-10T17:28:49.074Z,97722.72
2023-07-10T17:31:32.749Z,97731.09
2023-07-10T17:34:01.945Z,97731.50
2023-07-10T17:36:30.953Z,97725.22
2023-07-10T17:39:08.872Z,97726.06
2023-07-10T17:41:45.466Z,97733.78
2023-07-10T17:44:28.922Z,97733.00
2023-07-10T17:46:55.962Z,97726.19
2023-07-10T17:49:22.803Z,97741.09
2023-07-10T17:51:49.903Z,97736.44
2023-07-10T17:54:36.909Z,97731.34
2023-07-10T17:57:09.419Z,97738.16
2023-07-10T17:59:36.314Z,97746.00
2023-07-10T18:02:03.273Z,97743.72
2023-07-10T18:04:30.162Z,97740.34
2023-07-10T18:06:57.138Z,97743.19
2023-07-10T18:09:30.167Z,97743.63
2023-07-10T18:11:57.341Z,97738.66
2023-07-10T18:14:24.561Z,97747.44
2023-07-10T18:16:51.368Z,97745.88
2023-07-10T18:19:19.867Z,97751.94
2023-07-10T18:21:53.563Z,97755.84
2023-07-10T18:24:24.066Z,97751.81
2023-07-10T18:26:51.744Z,97759.16
2023-07-10T18:29:18.880Z,97758.81
2023-07-10T18:31:45.619Z,97770.09
2023-07-10T18:34:18.661Z,97764.03
2023-07-10T18:36:45.296Z,97767.09
2023-07-10T18:39:12.484Z,97768.88
2023-07-10T18:41:41.650Z,97767.13
2023-07-10T18:44:15.292Z,97769.47
2023-07-10T18:46:42.013Z,97767.38
2023-07-10T18:49:21.436Z,97770.56
2023-07-10T18:51:49.412Z,97768.56
2023-07-10T18:54:21.004Z,97776.34
2023-07-10T18:56:47.628Z,97771.44
2023-07-10T18:59:23.392Z,97777.28
2023-07-10T19:01:54.207Z,97774.59
2023-07-10T19:04:22.032Z,97781.19
2023-07-10T19:06:51.593Z,97781.09
2023-07-10T19:09:21.162Z,97775.59
2023-07-10T19:11:48.320Z,97776.88
2023-07-10T19:14:16.866Z,97778.66
2023-07-10T19:16:45.676Z,97776.22
2023-07-10T19:19:24.672Z,97772.47
2023-07-10T19:21:52.584Z,97775.53
2023-07-10T19:24:23.667Z,97775.59
2023-07-10T19:26:51.526Z,97777.22
2023-07-10T19:29:18.226Z,97780.75
2023-07-10T19:31:53.262Z,97786.44
2023-07-10T19:34:21.214Z,97785.00
2023-07-10T19:36:49.557Z,97797.09
2023-07-10T19:39:22.614Z,97798.22
2023-07-10T19:41:52.544Z,97802.84
2023-07-10T19:44:23.518Z,97800.56
2023-07-10T19:46:50.933Z,97797.28
2023-07-10T19:49:25.389Z,97801.44
2023-07-10T19:51:52.113Z,97793.06
2023-07-10T19:54:21.290Z,97802.63
2023-07-10T19:56:48.462Z,97799.84
2023-07-10T19:59:20.378Z,97800.34
2023-07-10T20:01:51.208Z,97810.06
2023-07-10T20:04:17.995Z,97801.91
2023-07-10T20:06:47.535Z,97810.34
2023-07-10T20:09:17.854Z,97805.75
2023-07-10T20:11:45.251Z,97808.59
2023-07-10T20:14:17.249Z,97809.84
2023-07-10T20:16:47.348Z,97811.88
2023-07-10T20:19:19.344Z,97818.00
2023-07-10T20:21:46.857Z,97819.00
2023-07-10T20:24:15.200Z,97817.16
2023-07-10T20:26:43.355Z,97812.31
2023-07-10T20:29:14.561Z,97813.88
2023-07-10T20:31:41.907Z,97820.72
2023-07-10T20:34:10.741Z,97815.13
2023-07-10T20:36:39.152Z,97821.69
2023-07-10T20:39:17.324Z,97819.09
2023-07-10T20:41:44.719Z,97821.34
2023-07-10T20:44:17.218Z,97812.66
2023-07-10T20:46:46.475Z,97820.53
2023-07-10T20:49:15.262Z,97816.44
2023-07-10T20:51:42.013Z,97819.00
2023-07-10T20:54:16.462Z,97810.75
2023-07-10T20:56:44.876Z,97822.50
2023-07-10T20:59:26.267Z,97820.97
2023-07-10T21:01:53.258Z,97814.75
2023-07-10T21:04:20.280Z,97810.69
2023-07-10T21:06:51.827Z,97809.34
2023-07-10T21:09:41.401Z,97812.63
2023-07-10T21:12:18.852Z,97810.53
2023-07-10T21:14:46.422Z,97814.28
2023-07-10T21:17:21.164Z,97816.31
2023-07-10T21:19:47.828Z,97802.13
2023-07-10T21:22:17.260Z,97816.50
2023-07-10T21:24:48.086Z,97816.34
2023-07-10T21:27:26.165Z,97813.69
2023-07-10T21:29:54.021Z,97810.72
2023-07-10T21:32:25.059Z,97807.69
2023-07-10T21:34:53.788Z,97812.09
2023-07-10T21:37:20.641Z,97817.41
2023-07-10T21:39:47.317Z,97816.03
2023-07-10T21:42:22.464Z,97806.25
2023-07-10T21:44:49.599Z,97815.38
2023-07-10T21:47:16.510Z,97816.41
2023-07-10T21:49:43.214Z,97817.69
2023-07-10T21:52:10.748Z,97813.47
2023-07-10T21:54:37.546Z,97812.72
2023-07-10T21:57:05.029Z,97816.91
2023-07-10T21:59:37.418Z,97815.81
2023-07-10T22:02:04.441Z,97817.84
2023-07-10T22:04:31.418Z,97825.88
2023-07-10T22:06:58.289Z,97822.03
2023-07-10T22:09:24.867Z,97821.28
2023-07-10T22:11:51.794Z,97821.00
2023-07-10T22:14:19.464Z,97822.28
2023-07-10T22:16:48.636Z,97816.97
2023-07-10T22:19:18.567Z,97816.13
2023-07-10T22:21:45.488Z,97819.50
2023-07-10T22:24:20.208Z,97822.00
2023-07-10T22:26:48.037Z,97815.50
2023-07-10T22:29:14.984Z,97826.84
2023-07-10T22:31:44.980Z,97820.16
2023-07-10T22:34:12.490Z,97830.03
2023-07-10T22:36:40.847Z,97830.50
2023-07-10T22:39:07.505Z,97826.50
2023-07-10T22:41:35.672Z,97834.19
2023-07-10T22:44:06.443Z,97829.78
2023-07-10T22:46:41.716Z,97829.56
2023-07-10T22:49:12.615Z,97830.94
2023-07-10T22:51:39.436Z,97827.13
2023-07-10T22:54:06.979Z,97828.09
2023-07-10T22:56:37.141Z,97827.06
2023-07-10T22:59:04.468Z,97829.88
2023-07-10T23:01:31.249Z,97830.88
2023-07-10T23:03:58.258Z,97836.66
2023-07-10T23:06:32.873Z,97835.31
2023-07-10T23:08:59.891Z,97831.69
2023-07-10T23:11:26.818Z,97836.13
2023-07-10T23:13:53.593Z,97831.50
2023-07-10T23:16:22.655Z,97837.28
2023-07-10T23:18:53.003Z,97836.19
2023-07-10T23:21:20.298Z,97841.31
2023-07-10T23:23:47.068Z,97845.63
2023-07-10T23:26:14.836Z,97835.25
2023-07-10T23:28:41.534Z,97847.16
2023-07-10T23:31:20.472Z,97839.84
2023-07-10T23:33:49.794Z,97838.44
2023-07-10T23:36:20.822Z,97838.81
2023-07-10T23:38:48.388Z,97838.03
2023-07-10T23:41:17.094Z,97833.44
2023-07-10T23:43:44.627Z,97833.06
2023-07-10T23:46:12.294Z,97824.41
2023-07-10T23:48:40.278Z,97827.41
2023-07-10T23:51:07.111Z,97822.38
2023-07-10T23:53:33.837Z,97822.78
2023-07-10T23:56:01.152Z,97830.84
2023-07-10T23:58:28.457Z,97827.97
